Somerset, Wisconsin
Current Conditions -  °F | °C
As of 2:15 AM on Thursday 29 Jan 2015 (Local Time) from KRNH Reporting Station
Haze Haze  
Wind Chill: 21°   Ceiling: 500
Heat Index: 30°   Visibility: 2.5mi
Dew Point: 30°   Wind: 10mph
Humidity: 100%   Direction: 320°NW
Pressure: 29.87"   Gusts: NA
Location:  45.12°N, 92.67°W
Report Text: KRNH 290815Z AUTO 32009KT 2 1/2SM BR OVC005 M01/M01 A2987 RMK AO2 T10121012
Loading
Personal Weather Stations






























Interactive Weather Map New forecast layout! Learn more

10-Day Weather Forecast

Advertisements
Track Severe Weather on mobile